Portland, Oregon
Traffic Map
Current Weather Conditions
Portland, Oregon
Few Clouds
Few Clouds
32°
Feels Like: 32°
Wind Chill: 32° Ceiling: Unl
Heat Index: 32° Visibility: 10mi
Dew Point: 14° Wind: 15mph
Humidity: 34% Direction: 310° (NW)
Pressure: 30.01in Gusts: 0mph
Raw Report DataKPDX 300053Z 31013KT 10SM FEW080 FEW130 32/14 A3001 RMK AO2 SLP160 T03170139
Traffic Incident Summary
Active as of:
Severity:
Category:
InformationThere was an issue retrieving the traffic information for this location. Please try a different location or try again shortly.
Advertisements
Track Severe Weather on mobile